createdAt,value
2018-07-19T00:01:46.739Z,57.83
2018-07-19T00:04:20.139Z,57.93
2018-07-19T00:06:53.515Z,58.26
2018-07-19T00:09:26.967Z,58.70
2018-07-19T00:12:00.377Z,58.50
2018-07-19T00:14:33.780Z,58.63
2018-07-19T00:17:07.519Z,59.36
2018-07-19T00:19:40.936Z,59.02
2018-07-19T00:22:14.315Z,59.37
2018-07-19T00:24:47.705Z,59.57
2018-07-19T00:27:21.294Z,59.36
2018-07-19T00:29:54.675Z,58.75
2018-07-19T00:32:28.068Z,58.92
2018-07-19T00:35:01.425Z,58.92
2018-07-19T00:37:34.843Z,59.12
2018-07-19T00:40:08.240Z,59.50
2018-07-19T00:42:41.647Z,59.97
2018-07-19T00:45:15.066Z,59.49
2018-07-19T00:47:48.468Z,59.92
2018-07-19T00:50:21.827Z,59.79
2018-07-19T00:52:55.233Z,60.21
2018-07-19T00:55:28.588Z,59.80
2018-07-19T00:58:01.983Z,59.85
2018-07-19T01:00:35.527Z,59.60
2018-07-19T01:03:08.965Z,59.27
2018-07-19T01:05:42.324Z,59.26
2018-07-19T01:08:15.732Z,59.54
2018-07-19T01:10:49.103Z,59.27
2018-07-19T01:13:22.645Z,59.33
2018-07-19T01:15:56.019Z,59.87
2018-07-19T01:18:29.444Z,60.21
2018-07-19T01:21:02.815Z,59.93
2018-07-19T01:23:36.252Z,59.63
2018-07-19T01:26:09.642Z,59.72
2018-07-19T01:28:43.039Z,60.18
2018-07-19T01:31:16.771Z,60.42
2018-07-19T01:33:50.175Z,59.71
2018-07-19T01:36:23.567Z,60.16
2018-07-19T01:38:56.939Z,59.80
2018-07-19T01:41:41.572Z,60.17
2018-07-19T01:44:14.964Z,60.14
2018-07-19T01:46:48.385Z,59.91
2018-07-19T01:49:21.821Z,60.17
2018-07-19T01:51:55.295Z,60.22
2018-07-19T01:54:28.695Z,59.94
2018-07-19T01:57:02.196Z,59.62
2018-07-19T01:59:35.607Z,60.14
2018-07-19T02:02:09.076Z,60.02
2018-07-19T02:04:42.708Z,59.77
2018-07-19T02:07:16.220Z,59.56
2018-07-19T02:09:49.644Z,59.91
2018-07-19T02:12:23.083Z,60.23
2018-07-19T02:14:56.590Z,60.18
2018-07-19T02:17:30.064Z,59.86
2018-07-19T02:20:03.493Z,60.15
2018-07-19T02:22:36.923Z,59.84
2018-07-19T02:25:10.339Z,60.00
2018-07-19T02:27:43.768Z,60.46
2018-07-19T02:30:17.171Z,60.50
2018-07-19T02:32:50.623Z,60.49
2018-07-19T02:35:24.091Z,60.53
2018-07-19T02:37:57.528Z,60.36
2018-07-19T02:40:30.968Z,60.42
2018-07-19T02:43:04.436Z,60.43
2018-07-19T02:45:37.936Z,60.15
2018-07-19T02:48:11.368Z,60.22
2018-07-19T02:50:44.759Z,60.17
2018-07-19T02:53:18.272Z,60.48
2018-07-19T02:55:51.701Z,60.15
2018-07-19T02:58:25.167Z,60.19
2018-07-19T03:00:58.679Z,60.31
2018-07-19T03:03:32.126Z,60.24
2018-07-19T03:06:05.779Z,60.42
2018-07-19T03:08:39.240Z,60.63
2018-07-19T03:11:12.678Z,60.58
2018-07-19T03:13:46.113Z,60.08
2018-07-19T03:16:19.620Z,60.02
2018-07-19T03:18:53.022Z,60.19
2018-07-19T03:21:26.529Z,59.89
2018-07-19T03:23:59.926Z,59.57
2018-07-19T03:26:33.573Z,59.91
2018-07-19T03:29:07.068Z,60.04
2018-07-19T03:31:40.573Z,60.28
2018-07-19T03:34:14.007Z,60.55
2018-07-19T03:36:47.431Z,60.28
2018-07-19T03:39:20.875Z,60.22
2018-07-19T03:41:54.491Z,60.21
2018-07-19T03:44:28.817Z,59.77
2018-07-19T03:47:02.927Z,60.18
2018-07-19T03:49:36.356Z,60.03
2018-07-19T03:52:09.783Z,60.13
2018-07-19T03:54:43.255Z,59.88
2018-07-19T03:57:16.640Z,59.76
2018-07-19T03:59:50.302Z,59.87
2018-07-19T04:02:23.680Z,60.08
2018-07-19T04:04:57.211Z,60.49
2018-07-19T04:07:30.604Z,60.20
2018-07-19T04:10:04.199Z,60.24
2018-07-19T04:12:37.597Z,60.56
2018-07-19T04:15:11.047Z,60.79
2018-07-19T04:17:50.683Z,60.66
2018-07-19T04:20:25.655Z,60.75
2018-07-19T04:22:59.063Z,60.64
2018-07-19T04:25:32.484Z,60.72
2018-07-19T04:28:05.932Z,60.92
2018-07-19T04:30:39.354Z,60.56
2018-07-19T04:33:12.762Z,60.03
2018-07-19T04:35:46.323Z,60.25
2018-07-19T04:38:19.828Z,60.03
2018-07-19T04:40:53.172Z,59.50
2018-07-19T04:43:26.595Z,59.20
2018-07-19T04:46:00.354Z,59.04
2018-07-19T04:48:33.799Z,59.24
2018-07-19T04:51:07.328Z,59.00
2018-07-19T04:53:40.734Z,59.04
2018-07-19T04:56:14.176Z,58.94
2018-07-19T04:58:47.600Z,59.13
2018-07-19T05:01:21.051Z,58.59
2018-07-19T05:03:54.583Z,58.71
2018-07-19T05:06:27.990Z,58.60
2018-07-19T05:09:01.375Z,58.37
2018-07-19T05:11:34.848Z,58.59
2018-07-19T05:14:08.343Z,57.92
2018-07-19T05:16:41.712Z,58.11
2018-07-19T05:19:15.094Z,57.63
2018-07-19T05:21:48.503Z,57.14
2018-07-19T05:24:21.864Z,57.13
2018-07-19T05:26:55.282Z,56.85
2018-07-19T05:29:28.651Z,56.51
2018-07-19T05:32:02.017Z,56.71
2018-07-19T05:34:35.420Z,56.59
2018-07-19T05:37:08.909Z,56.59
2018-07-19T05:39:42.309Z,56.18
2018-07-19T05:42:15.734Z,55.56
2018-07-19T05:44:49.155Z,55.05
2018-07-19T05:47:22.642Z,55.66
2018-07-19T05:49:56.130Z,55.15
2018-07-19T05:52:29.548Z,55.02
2018-07-19T05:55:03.573Z,54.86
2018-07-19T05:57:37.121Z,53.81
2018-07-19T06:00:10.527Z,53.05
2018-07-19T06:02:43.967Z,52.44
2018-07-19T06:05:17.405Z,51.14
2018-07-19T06:07:50.786Z,50.43
2018-07-19T06:10:24.188Z,50.02
2018-07-19T06:12:57.604Z,50.11
2018-07-19T06:15:31.030Z,49.49
2018-07-19T06:18:04.459Z,49.41
2018-07-19T06:20:37.913Z,48.48
2018-07-19T06:23:11.303Z,47.87
2018-07-19T06:25:44.724Z,47.54
2018-07-19T06:28:18.178Z,47.62
2018-07-19T06:30:51.567Z,45.05
2018-07-19T06:33:24.973Z,41.78
2018-07-19T06:35:58.915Z,41.54
2018-07-19T06:38:32.325Z,41.28
2018-07-19T06:41:05.834Z,42.18
2018-07-19T06:43:39.241Z,42.99
2018-07-19T06:46:12.729Z,43.31
2018-07-19T06:48:46.113Z,43.17
2018-07-19T06:51:19.507Z,43.76
2018-07-19T06:53:52.886Z,42.98
2018-07-19T06:56:26.300Z,42.32
2018-07-19T06:58:59.669Z,42.50
2018-07-19T07:01:33.101Z,42.29
2018-07-19T07:04:06.514Z,41.77
2018-07-19T07:06:39.934Z,41.02
2018-07-19T07:09:13.452Z,41.43
2018-07-19T07:11:47.009Z,40.74
2018-07-19T07:14:20.377Z,41.30
2018-07-19T07:16:53.818Z,40.16
2018-07-19T07:19:27.223Z,40.15
2018-07-19T07:22:00.660Z,40.15
2018-07-19T07:24:34.424Z,40.29
2018-07-19T07:27:07.855Z,40.53
2018-07-19T07:29:41.250Z,39.66
2018-07-19T07:32:16.145Z,39.42
2018-07-19T07:34:49.693Z,38.90
2018-07-19T07:37:23.179Z,39.52
2018-07-19T07:39:56.625Z,39.34
2018-07-19T07:42:30.056Z,37.81
2018-07-19T07:45:03.513Z,38.01
2018-07-19T07:47:36.969Z,37.16
2018-07-19T07:50:10.399Z,37.87
2018-07-19T07:52:43.820Z,36.82
2018-07-19T07:55:17.236Z,36.56
2018-07-19T07:57:50.670Z,36.97
2018-07-19T08:00:24.086Z,36.39
2018-07-19T08:02:57.531Z,36.72
2018-07-19T08:05:30.936Z,36.80
2018-07-19T08:08:04.479Z,36.23
2018-07-19T08:10:37.892Z,36.81
2018-07-19T08:13:11.359Z,36.76
2018-07-19T08:15:44.880Z,36.08
2018-07-19T08:18:18.381Z,35.90
2018-07-19T08:20:51.787Z,35.20
2018-07-19T08:23:25.237Z,34.33
2018-07-19T08:25:58.733Z,34.56
2018-07-19T08:28:32.170Z,34.98
2018-07-19T08:31:05.662Z,34.76
2018-07-19T08:33:39.152Z,35.89
2018-07-19T08:36:13.587Z,34.02
2018-07-19T08:38:46.991Z,33.88
2018-07-19T08:41:20.423Z,34.42
2018-07-19T08:43:53.872Z,32.95
2018-07-19T08:46:27.296Z,33.35
2018-07-19T08:49:00.712Z,34.16
2018-07-19T08:51:34.137Z,33.42
2018-07-19T08:54:07.649Z,32.72
2018-07-19T08:56:41.074Z,32.79
2018-07-19T08:59:14.536Z,33.89
2018-07-19T09:01:47.990Z,33.64
2018-07-19T09:04:21.452Z,33.25
2018-07-19T09:06:54.877Z,33.13
2018-07-19T09:09:28.297Z,31.62
2018-07-19T09:12:01.692Z,31.52
2018-07-19T09:14:35.105Z,31.52
2018-07-19T09:17:08.564Z,31.45
2018-07-19T09:19:42.016Z,33.27
2018-07-19T09:22:15.416Z,31.66
2018-07-19T09:24:48.856Z,31.65
2018-07-19T09:27:22.712Z,33.03
2018-07-19T09:29:56.118Z,31.85
2018-07-19T09:32:29.539Z,31.36
2018-07-19T09:35:02.982Z,31.71
2018-07-19T09:37:36.430Z,32.49
2018-07-19T09:40:10.186Z,30.71
2018-07-19T09:42:43.624Z,31.20
2018-07-19T09:45:17.035Z,30.79
2018-07-19T09:47:50.471Z,30.60
2018-07-19T09:50:23.899Z,30.59
2018-07-19T09:52:57.340Z,30.64
2018-07-19T09:55:30.726Z,30.18
2018-07-19T09:58:04.183Z,30.44
2018-07-19T10:00:43.028Z,29.92
2018-07-19T10:03:16.456Z,29.82
2018-07-19T10:05:49.912Z,29.36
2018-07-19T10:08:23.316Z,29.26
2018-07-19T10:10:56.770Z,29.88
2018-07-19T10:13:30.281Z,29.44
2018-07-19T10:16:03.762Z,28.68
2018-07-19T10:18:37.145Z,28.80
2018-07-19T10:21:10.731Z,28.35
2018-07-19T10:23:44.135Z,28.69
2018-07-19T10:26:17.517Z,30.22
2018-07-19T10:28:50.931Z,28.83
2018-07-19T10:31:24.333Z,29.82
2018-07-19T10:33:57.748Z,28.71
2018-07-19T10:36:31.133Z,28.98
2018-07-19T10:39:05.998Z,28.87
2018-07-19T10:41:39.485Z,29.01
2018-07-19T10:44:12.896Z,29.49
2018-07-19T10:46:46.283Z,28.86
2018-07-19T10:49:19.719Z,27.89
2018-07-19T10:51:53.129Z,28.98
2018-07-19T10:54:26.472Z,28.29
2018-07-19T10:56:59.828Z,28.05
2018-07-19T10:59:33.211Z,27.85
2018-07-19T11:02:06.635Z,27.74
2018-07-19T11:04:40.017Z,26.74
2018-07-19T11:07:13.419Z,27.79
2018-07-19T11:09:47.243Z,27.63
2018-07-19T11:12:20.622Z,26.62
2018-07-19T11:14:54.005Z,29.29
2018-07-19T11:17:27.603Z,27.30
2018-07-19T11:20:00.973Z,26.68
2018-07-19T11:22:34.363Z,26.80
2018-07-19T11:25:07.774Z,26.75
2018-07-19T11:27:41.145Z,27.38
2018-07-19T11:30:14.555Z,27.34
2018-07-19T11:32:47.928Z,27.01
2018-07-19T11:35:21.401Z,26.92
2018-07-19T11:37:54.716Z,27.13
2018-07-19T11:40:28.152Z,26.37
2018-07-19T11:43:01.717Z,27.26
2018-07-19T11:45:35.083Z,26.66
2018-07-19T11:48:08.488Z,26.19
2018-07-19T11:50:41.859Z,26.37
2018-07-19T11:53:15.233Z,27.25
2018-07-19T11:55:48.617Z,26.43
2018-07-19T11:58:22.212Z,27.16
2018-07-19T12:00:55.609Z,26.94
2018-07-19T12:03:28.984Z,27.23
2018-07-19T12:06:02.415Z,26.74
2018-07-19T12:08:35.778Z,27.65
2018-07-19T12:11:09.207Z,28.16
2018-07-19T12:13:42.600Z,27.79
2018-07-19T12:16:16.075Z,28.05
2018-07-19T12:18:49.456Z,28.63
2018-07-19T12:21:22.879Z,28.12
2018-07-19T12:23:56.496Z,27.81
2018-07-19T12:26:29.955Z,28.23
2018-07-19T12:29:03.349Z,28.39
2018-07-19T12:31:36.783Z,28.57
2018-07-19T12:34:10.211Z,28.38
2018-07-19T12:36:43.615Z,28.43
2018-07-19T12:39:17.005Z,28.96
2018-07-19T12:41:50.439Z,28.46
2018-07-19T12:44:23.857Z,29.60
2018-07-19T12:46:57.300Z,28.86
2018-07-19T12:49:30.680Z,28.57
2018-07-19T12:52:04.249Z,27.90
2018-07-19T12:54:37.580Z,27.80
2018-07-19T12:57:11.025Z,28.07
2018-07-19T12:59:44.479Z,28.49
2018-07-19T13:02:17.905Z,29.13
2018-07-19T13:04:51.383Z,28.47
2018-07-19T13:07:24.796Z,28.77
2018-07-19T13:09:58.194Z,28.13
2018-07-19T13:12:31.628Z,27.75
2018-07-19T13:15:06.333Z,27.27
2018-07-19T13:17:39.913Z,27.58
2018-07-19T13:20:13.326Z,28.56
2018-07-19T13:22:46.734Z,27.32
2018-07-19T13:25:20.108Z,27.61
2018-07-19T13:27:53.524Z,28.02
2018-07-19T13:30:26.932Z,28.24
2018-07-19T13:33:00.355Z,27.99
2018-07-19T13:35:33.740Z,27.72
2018-07-19T13:38:07.143Z,28.06
2018-07-19T13:40:40.556Z,28.18
2018-07-19T13:43:13.956Z,29.21
2018-07-19T13:45:47.367Z,28.09
2018-07-19T13:48:20.853Z,28.41
2018-07-19T13:50:54.292Z,27.72
2018-07-19T13:53:40.215Z,27.37
2018-07-19T13:56:13.647Z,28.19
2018-07-19T13:58:47.071Z,28.24
2018-07-19T14:01:20.476Z,28.78
2018-07-19T14:03:53.900Z,28.18
2018-07-19T14:06:27.302Z,28.57
2018-07-19T14:09:00.712Z,28.12
2018-07-19T14:11:34.104Z,28.07
2018-07-19T14:14:07.613Z,27.67
2018-07-19T14:16:40.994Z,27.65
2018-07-19T14:19:14.419Z,27.30
2018-07-19T14:21:47.785Z,27.94
2018-07-19T14:24:21.167Z,27.03
2018-07-19T14:26:54.513Z,27.04
2018-07-19T14:29:27.924Z,27.83
2018-07-19T14:32:01.343Z,27.96
2018-07-19T14:34:34.769Z,27.29
2018-07-19T14:37:08.135Z,27.27
2018-07-19T14:39:41.516Z,28.73
2018-07-19T14:42:14.998Z,27.49
2018-07-19T14:44:48.399Z,27.54
2018-07-19T14:47:21.792Z,28.08
2018-07-19T14:49:55.162Z,28.10
2018-07-19T14:52:28.540Z,27.15
2018-07-19T14:55:01.941Z,26.90
2018-07-19T14:57:35.403Z,28.92
2018-07-19T15:00:09.591Z,28.37
2018-07-19T15:02:43.061Z,27.89
2018-07-19T15:05:16.508Z,28.54
2018-07-19T15:07:49.866Z,29.43
2018-07-19T15:10:23.563Z,29.17
2018-07-19T15:12:56.991Z,28.88
2018-07-19T15:15:30.592Z,28.38
2018-07-19T15:18:04.009Z,28.63
2018-07-19T15:20:37.404Z,28.95
2018-07-19T15:23:11.607Z,29.25
2018-07-19T15:25:45.131Z,29.08
2018-07-19T15:28:18.590Z,29.37
2018-07-19T15:30:52.313Z,29.47
2018-07-19T15:33:25.714Z,28.72
2018-07-19T15:35:59.106Z,28.79
2018-07-19T15:38:32.488Z,29.62
2018-07-19T15:41:05.897Z,29.47
2018-07-19T15:43:39.296Z,29.32
2018-07-19T15:46:12.680Z,29.84
2018-07-19T15:48:46.073Z,29.68
2018-07-19T15:51:19.517Z,30.10
2018-07-19T15:53:52.932Z,30.09
2018-07-19T15:56:26.357Z,29.47
2018-07-19T15:58:59.735Z,30.67
2018-07-19T16:01:33.209Z,30.29
2018-07-19T16:04:06.606Z,29.77
2018-07-19T16:06:40.862Z,30.73
2018-07-19T16:09:14.220Z,31.03
2018-07-19T16:11:47.654Z,30.88
2018-07-19T16:14:21.148Z,31.47
2018-07-19T16:16:54.564Z,30.67
2018-07-19T16:19:27.931Z,30.39
2018-07-19T16:22:01.315Z,30.41
2018-07-19T16:24:34.715Z,31.12
2018-07-19T16:27:08.121Z,30.64
2018-07-19T16:29:41.501Z,30.38
2018-07-19T16:32:14.891Z,30.54
2018-07-19T16:34:48.292Z,31.41
2018-07-19T16:37:22.065Z,31.77
2018-07-19T16:39:55.451Z,31.53
2018-07-19T16:42:28.856Z,30.85
2018-07-19T16:45:02.265Z,31.44
2018-07-19T16:47:35.719Z,31.44
2018-07-19T16:50:09.136Z,32.43
2018-07-19T16:52:42.537Z,31.72
2018-07-19T16:55:15.909Z,31.56
2018-07-19T16:57:49.295Z,32.35
2018-07-19T17:00:22.692Z,31.20
2018-07-19T17:02:56.129Z,31.83
2018-07-19T17:05:29.517Z,31.33
2018-07-19T17:08:02.981Z,31.64
2018-07-19T17:10:36.370Z,31.17
2018-07-19T17:13:09.974Z,31.14
2018-07-19T17:15:43.335Z,31.24
2018-07-19T17:18:16.739Z,30.45
2018-07-19T17:20:50.100Z,32.07
2018-07-19T17:23:23.475Z,32.53
2018-07-19T17:25:56.866Z,32.55
2018-07-19T17:28:30.253Z,32.51
2018-07-19T17:31:03.594Z,32.20
2018-07-19T17:33:36.977Z,32.05
2018-07-19T17:36:10.480Z,33.13
2018-07-19T17:38:43.881Z,32.01
2018-07-19T17:41:17.277Z,32.42
2018-07-19T17:43:50.643Z,35.36
2018-07-19T17:46:24.017Z,33.73
2018-07-19T17:48:57.414Z,33.70
2018-07-19T17:51:30.857Z,33.45
2018-07-19T17:54:04.342Z,33.81
2018-07-19T17:56:37.914Z,35.27
2018-07-19T17:59:11.351Z,34.91
2018-07-19T18:01:44.813Z,33.02
2018-07-19T18:04:18.289Z,33.74
2018-07-19T18:06:51.663Z,33.41
2018-07-19T18:09:25.071Z,35.31
2018-07-19T18:11:58.456Z,33.90
2018-07-19T18:14:31.859Z,34.55
2018-07-19T18:17:05.352Z,34.48
2018-07-19T18:19:38.728Z,34.43
2018-07-19T18:22:12.114Z,33.83
2018-07-19T18:24:46.698Z,34.40
2018-07-19T18:27:20.140Z,33.93
2018-07-19T18:29:53.573Z,34.39
2018-07-19T18:32:26.983Z,35.56
2018-07-19T18:35:00.438Z,35.64
2018-07-19T18:37:33.849Z,35.53
2018-07-19T18:40:07.362Z,36.22
2018-07-19T18:42:40.735Z,36.87
2018-07-19T18:45:14.108Z,36.76
2018-07-19T18:47:47.567Z,37.15
2018-07-19T18:50:20.939Z,36.67
2018-07-19T18:52:54.353Z,37.25
2018-07-19T18:55:27.771Z,37.46
2018-07-19T18:58:01.238Z,38.24
2018-07-19T19:00:34.644Z,38.66
2018-07-19T19:03:08.359Z,38.58
2018-07-19T19:05:41.846Z,39.54
2018-07-19T19:08:15.227Z,39.70
2018-07-19T19:10:48.620Z,41.03
2018-07-19T19:13:22.109Z,41.21
2018-07-19T19:15:55.505Z,40.91
2018-07-19T19:18:28.905Z,41.01
2018-07-19T19:21:02.363Z,40.96
2018-07-19T19:23:35.824Z,40.95
2018-07-19T19:26:09.763Z,41.67
2018-07-19T19:28:43.591Z,42.25
2018-07-19T19:31:17.252Z,42.52
2018-07-19T19:33:50.681Z,43.47
2018-07-19T19:36:24.059Z,43.18
2018-07-19T19:38:57.580Z,43.69
2018-07-19T19:41:31.136Z,43.48
2018-07-19T19:44:04.569Z,44.12
2018-07-19T19:46:37.997Z,44.81
2018-07-19T19:49:11.484Z,44.64
2018-07-19T19:51:44.885Z,45.32
2018-07-19T19:54:18.333Z,45.85
2018-07-19T19:56:51.688Z,45.87
2018-07-19T19:59:25.101Z,46.21
2018-07-19T20:01:58.476Z,46.08
2018-07-19T20:04:31.866Z,46.45
2018-07-19T20:07:05.262Z,47.05
2018-07-19T20:09:38.675Z,47.48
2018-07-19T20:12:12.079Z,47.41
2018-07-19T20:14:45.764Z,48.35
2018-07-19T20:17:19.141Z,48.70
2018-07-19T20:19:52.524Z,50.20
2018-07-19T20:22:25.904Z,50.09
2018-07-19T20:24:59.384Z,49.62
2018-07-19T20:27:32.728Z,49.32
2018-07-19T20:30:06.167Z,50.09
2018-07-19T20:32:39.559Z,49.66
2018-07-19T20:35:12.934Z,49.92
2018-07-19T20:37:46.297Z,49.86
2018-07-19T20:40:19.672Z,50.45
2018-07-19T20:42:53.224Z,52.04
2018-07-19T20:45:26.799Z,51.40
2018-07-19T20:48:00.127Z,52.10
2018-07-19T20:50:33.518Z,51.40
2018-07-19T20:53:06.874Z,51.27
2018-07-19T20:55:40.357Z,51.09
2018-07-19T20:58:13.711Z,51.00
2018-07-19T21:00:47.335Z,51.40
2018-07-19T21:03:20.951Z,51.58
2018-07-19T21:05:54.404Z,51.49
2018-07-19T21:08:27.818Z,52.44
2018-07-19T21:11:01.390Z,52.61
2018-07-19T21:13:35.375Z,52.44
2018-07-19T21:16:08.913Z,52.28
2018-07-19T21:18:42.378Z,52.76
2018-07-19T21:21:15.772Z,53.18
2018-07-19T21:23:49.191Z,52.76
2018-07-19T21:26:22.583Z,52.81
2018-07-19T21:28:56.112Z,52.48
2018-07-19T21:31:30.304Z,52.97
2018-07-19T21:34:04.354Z,52.55
2018-07-19T21:36:38.696Z,52.90
2018-07-19T21:39:13.442Z,53.35
2018-07-19T21:41:47.719Z,52.95
2018-07-19T21:44:21.168Z,53.08
2018-07-19T21:46:54.632Z,53.10
2018-07-19T21:49:28.042Z,52.70
2018-07-19T21:52:01.468Z,52.69
2018-07-19T21:54:34.956Z,53.32
2018-07-19T21:57:08.371Z,53.30
2018-07-19T21:59:41.776Z,53.34
2018-07-19T22:02:15.489Z,53.55
2018-07-19T22:04:48.940Z,53.87
2018-07-19T22:07:22.361Z,53.89
2018-07-19T22:09:55.781Z,53.89
2018-07-19T22:12:29.191Z,53.72
2018-07-19T22:15:02.577Z,53.55
2018-07-19T22:17:35.988Z,53.42
2018-07-19T22:20:09.355Z,53.74
2018-07-19T22:22:42.735Z,54.03
2018-07-19T22:25:16.095Z,53.76
2018-07-19T22:27:49.523Z,54.77
2018-07-19T22:30:22.920Z,54.52
2018-07-19T22:37:48.744Z,54.01
2018-07-19T22:40:22.117Z,54.44
2018-07-19T22:42:55.494Z,54.85
2018-07-19T22:45:28.922Z,54.47
2018-07-19T22:48:02.299Z,54.44
2018-07-19T22:50:35.658Z,54.88
2018-07-19T22:53:09.053Z,54.33
2018-07-19T22:55:42.451Z,54.87
2018-07-19T22:58:15.841Z,54.83
2018-07-19T23:00:49.276Z,54.55
2018-07-19T23:03:22.990Z,55.32
2018-07-19T23:05:56.376Z,55.33
2018-07-19T23:08:29.759Z,54.95
2018-07-19T23:11:03.152Z,55.00
2018-07-19T23:13:36.619Z,55.68
2018-07-19T23:16:10.935Z,55.87
2018-07-19T23:18:44.435Z,55.46
2018-07-19T23:21:17.831Z,55.54
2018-07-19T23:23:51.192Z,56.22
2018-07-19T23:26:24.907Z,56.06
2018-07-19T23:28:58.447Z,56.49
2018-07-19T23:31:31.875Z,56.00
2018-07-19T23:34:05.565Z,55.86
2018-07-19T23:36:45.537Z,55.77
2018-07-19T23:39:29.463Z,55.94
2018-07-19T23:42:08.207Z,56.18
2018-07-19T23:44:50.199Z,56.28
2018-07-19T23:47:26.943Z,55.89
2018-07-19T23:50:00.325Z,56.14
2018-07-19T23:52:33.725Z,55.80
2018-07-19T23:55:07.157Z,56.00
2018-07-19T23:57:40.543Z,56.63
